sensor_id;sensor_type;location;lat;lon;timestamp;P1;P2;P0
73749;PMS7003;62058;48.406;-4.514;2022-07-29T00:00:57;13.50;11.50;8.25
73749;PMS7003;62058;48.406;-4.514;2022-07-29T00:03:22;17.00;11.75;9.75
73749;PMS7003;62058;48.406;-4.514;2022-07-29T00:05:48;16.50;14.00;9.75
73749;PMS7003;62058;48.406;-4.514;2022-07-29T00:08:13;18.50;15.00;11.00
73749;PMS7003;62058;48.406;-4.514;2022-07-29T00:10:40;10.25;10.00;8.25
73749;PMS7003;62058;48.406;-4.514;2022-07-29T00:13:06;11.25;11.25;9.50
73749;PMS7003;62058;48.406;-4.514;2022-07-29T00:15:31;14.50;13.75;10.50
73749;PMS7003;62058;48.406;-4.514;2022-07-29T00:17:57;11.75;10.75;8.50
73749;PMS7003;62058;48.406;-4.514;2022-07-29T00:20:22;15.00;13.25;10.00
73749;PMS7003;62058;48.406;-4.514;2022-07-29T00:22:50;16.25;15.00;10.50
73749;PMS7003;62058;48.406;-4.514;2022-07-29T00:25:15;16.75;14.25;11.25
73749;PMS7003;62058;48.406;-4.514;2022-07-29T00:27:41;9.75;8.00;6.75
73749;PMS7003;62058;48.406;-4.514;2022-07-29T00:30:06;15.00;12.00;9.50
73749;PMS7003;62058;48.406;-4.514;2022-07-29T00:32:32;14.25;13.25;9.75
73749;PMS7003;62058;48.406;-4.514;2022-07-29T00:34:58;14.75;12.25;9.50
73749;PMS7003;62058;48.406;-4.514;2022-07-29T00:37:42;18.00;13.75;9.25
73749;PMS7003;62058;48.406;-4.514;2022-07-29T00:40:08;17.00;14.50;10.50
73749;PMS7003;62058;48.406;-4.514;2022-07-29T00:42:44;17.00;15.25;12.75
73749;PMS7003;62058;48.406;-4.514;2022-07-29T00:45:10;16.00;16.00;11.75
73749;PMS7003;62058;48.406;-4.514;2022-07-29T00:47:35;22.00;15.00;9.50
73749;PMS7003;62058;48.406;-4.514;2022-07-29T00:50:01;17.00;16.00;10.50
73749;PMS7003;62058;48.406;-4.514;2022-07-29T00:52:26;25.00;15.50;10.50
73749;PMS7003;62058;48.406;-4.514;2022-07-29T00:54:51;15.75;14.25;10.75
73749;PMS7003;62058;48.406;-4.514;2022-07-29T00:57:17;16.25;16.25;11.50
73749;PMS7003;62058;48.406;-4.514;2022-07-29T00:59:43;14.75;13.00;10.25
73749;PMS7003;62058;48.406;-4.514;2022-07-29T01:02:08;16.25;14.50;10.75
73749;PMS7003;62058;48.406;-4.514;2022-07-29T01:04:33;15.00;13.50;11.25
73749;PMS7003;62058;48.406;-4.514;2022-07-29T01:07:00;12.75;12.00;9.50
73749;PMS7003;62058;48.406;-4.514;2022-07-29T01:09:27;17.75;13.50;11.00
73749;PMS7003;62058;48.406;-4.514;2022-07-29T01:11:53;14.00;12.75;9.75
73749;PMS7003;62058;48.406;-4.514;2022-07-29T01:14:19;20.00;15.50;11.50
73749;PMS7003;62058;48.406;-4.514;2022-07-29T01:16:51;20.00;17.00;11.00
73749;PMS7003;62058;48.406;-4.514;2022-07-29T01:30:21;18.00;17.00;10.75
73749;PMS7003;62058;48.406;-4.514;2022-07-29T01:32:50;19.50;16.75;14.00
73749;PMS7003;62058;48.406;-4.514;2022-07-29T01:35:23;16.25;15.50;11.25
73749;PMS7003;62058;48.406;-4.514;2022-07-29T01:43:14;19.00;16.75;11.75
73749;PMS7003;62058;48.406;-4.514;2022-07-29T01:45:46;26.50;20.25;12.25
73749;PMS7003;62058;48.406;-4.514;2022-07-29T01:51:06;19.50;19.00;13.25
73749;PMS7003;62058;48.406;-4.514;2022-07-29T01:53:42;15.75;15.75;12.25
73749;PMS7003;62058;48.406;-4.514;2022-07-29T01:56:12;19.75;13.25;10.50
73749;PMS7003;62058;48.406;-4.514;2022-07-29T01:58:41;18.75;17.50;13.50
73749;PMS7003;62058;48.406;-4.514;2022-07-29T02:01:08;24.25;19.50;13.75
73749;PMS7003;62058;48.406;-4.514;2022-07-29T02:03:36;30.75;22.00;16.50
73749;PMS7003;62058;48.406;-4.514;2022-07-29T02:06:04;27.25;20.25;14.25
73749;PMS7003;62058;48.406;-4.514;2022-07-29T02:08:32;23.25;21.00;14.75
73749;PMS7003;62058;48.406;-4.514;2022-07-29T02:10:59;29.00;24.75;16.00
73749;PMS7003;62058;48.406;-4.514;2022-07-29T02:13:26;33.00;27.25;18.25
73749;PMS7003;62058;48.406;-4.514;2022-07-29T02:15:53;25.75;21.25;16.75
73749;PMS7003;62058;48.406;-4.514;2022-07-29T02:18:20;28.00;27.50;19.50
73749;PMS7003;62058;48.406;-4.514;2022-07-29T02:20:49;23.25;22.25;17.50
73749;PMS7003;62058;48.406;-4.514;2022-07-29T02:23:18;25.75;21.75;16.75
73749;PMS7003;62058;48.406;-4.514;2022-07-29T02:25:47;21.00;20.75;16.25
73749;PMS7003;62058;48.406;-4.514;2022-07-29T02:28:15;25.50;24.50;17.50
73749;PMS7003;62058;48.406;-4.514;2022-07-29T02:30:42;26.25;26.25;18.75
73749;PMS7003;62058;48.406;-4.514;2022-07-29T02:33:10;20.00;19.25;13.75
73749;PMS7003;62058;48.406;-4.514;2022-07-29T02:35:39;18.50;17.00;13.25
73749;PMS7003;62058;48.406;-4.514;2022-07-29T02:38:05;25.75;22.25;17.00
73749;PMS7003;62058;48.406;-4.514;2022-07-29T02:40:51;23.00;22.00;16.00
73749;PMS7003;62058;48.406;-4.514;2022-07-29T02:43:19;26.00;22.25;16.75
73749;PMS7003;62058;48.406;-4.514;2022-07-29T02:45:47;21.75;19.50;14.75
73749;PMS7003;62058;48.406;-4.514;2022-07-29T02:48:16;22.25;21.00;15.50
73749;PMS7003;62058;48.406;-4.514;2022-07-29T02:50:50;30.25;25.00;17.00
73749;PMS7003;62058;48.406;-4.514;2022-07-29T02:53:20;22.75;20.25;16.25
73749;PMS7003;62058;48.406;-4.514;2022-07-29T02:55:51;21.50;19.25;14.75
73749;PMS7003;62058;48.406;-4.514;2022-07-29T03:00:55;23.25;20.00;14.75
73749;PMS7003;62058;48.406;-4.514;2022-07-29T03:03:24;20.75;20.50;16.00
73749;PMS7003;62058;48.406;-4.514;2022-07-29T03:05:56;22.25;21.25;14.00
73749;PMS7003;62058;48.406;-4.514;2022-07-29T03:08:24;22.50;21.50;14.75
73749;PMS7003;62058;48.406;-4.514;2022-07-29T03:10:52;21.50;19.50;15.00
73749;PMS7003;62058;48.406;-4.514;2022-07-29T03:13:18;22.25;19.25;14.00
73749;PMS7003;62058;48.406;-4.514;2022-07-29T03:15:45;21.50;19.25;14.25
73749;PMS7003;62058;48.406;-4.514;2022-07-29T03:18:11;22.25;18.75;14.00
73749;PMS7003;62058;48.406;-4.514;2022-07-29T03:20:38;30.00;22.00;16.50
73749;PMS7003;62058;48.406;-4.514;2022-07-29T03:23:04;23.25;20.25;14.25
73749;PMS7003;62058;48.406;-4.514;2022-07-29T03:25:30;25.25;20.00;15.50
73749;PMS7003;62058;48.406;-4.514;2022-07-29T03:27:55;26.25;24.75;15.25
73749;PMS7003;62058;48.406;-4.514;2022-07-29T03:30:21;31.00;27.25;17.50
73749;PMS7003;62058;48.406;-4.514;2022-07-29T03:32:48;24.00;21.00;16.50
73749;PMS7003;62058;48.406;-4.514;2022-07-29T03:35:14;20.25;20.25;14.00
73749;PMS7003;62058;48.406;-4.514;2022-07-29T03:37:41;29.50;25.25;17.75
73749;PMS7003;62058;48.406;-4.514;2022-07-29T03:40:07;21.25;19.25;14.75
73749;PMS7003;62058;48.406;-4.514;2022-07-29T03:42:37;25.00;21.75;14.50
73749;PMS7003;62058;48.406;-4.514;2022-07-29T03:45:08;22.00;19.25;15.50
73749;PMS7003;62058;48.406;-4.514;2022-07-29T03:47:38;23.75;21.00;15.00
73749;PMS7003;62058;48.406;-4.514;2022-07-29T03:50:08;22.50;21.00;16.25
73749;PMS7003;62058;48.406;-4.514;2022-07-29T03:52:36;23.75;17.00;12.75
73749;PMS7003;62058;48.406;-4.514;2022-07-29T03:55:02;18.50;18.50;11.75
73749;PMS7003;62058;48.406;-4.514;2022-07-29T03:57:28;19.00;17.00;12.75
73749;PMS7003;62058;48.406;-4.514;2022-07-29T03:59:56;26.75;21.00;16.25
73749;PMS7003;62058;48.406;-4.514;2022-07-29T04:02:22;23.00;21.75;15.00
73749;PMS7003;62058;48.406;-4.514;2022-07-29T04:04:48;22.75;18.00;12.75
73749;PMS7003;62058;48.406;-4.514;2022-07-29T04:07:14;25.75;22.00;13.75
73749;PMS7003;62058;48.406;-4.514;2022-07-29T04:09:40;28.50;21.75;15.75
73749;PMS7003;62058;48.406;-4.514;2022-07-29T04:12:06;22.25;19.75;14.25
73749;PMS7003;62058;48.406;-4.514;2022-07-29T04:14:32;24.50;21.50;14.25
73749;PMS7003;62058;48.406;-4.514;2022-07-29T04:16:58;21.25;18.75;14.50
73749;PMS7003;62058;48.406;-4.514;2022-07-29T04:19:24;25.25;22.50;14.25
73749;PMS7003;62058;48.406;-4.514;2022-07-29T04:21:49;23.75;20.50;16.25
73749;PMS7003;62058;48.406;-4.514;2022-07-29T04:24:15;20.25;15.50;10.25
73749;PMS7003;62058;48.406;-4.514;2022-07-29T04:26:40;21.00;20.00;14.50
73749;PMS7003;62058;48.406;-4.514;2022-07-29T04:29:06;22.75;20.25;13.50
73749;PMS7003;62058;48.406;-4.514;2022-07-29T04:31:31;26.75;21.00;14.50
73749;PMS7003;62058;48.406;-4.514;2022-07-29T04:33:57;21.00;19.75;14.50
73749;PMS7003;62058;48.406;-4.514;2022-07-29T04:36:22;19.25;15.50;11.50
73749;PMS7003;62058;48.406;-4.514;2022-07-29T04:38:48;24.00;20.25;13.75
73749;PMS7003;62058;48.406;-4.514;2022-07-29T04:41:13;24.00;21.25;15.50
73749;PMS7003;62058;48.406;-4.514;2022-07-29T04:43:39;24.50;20.50;14.50
73749;PMS7003;62058;48.406;-4.514;2022-07-29T04:46:05;19.50;17.25;11.00
73749;PMS7003;62058;48.406;-4.514;2022-07-29T04:48:31;17.75;16.00;13.00
73749;PMS7003;62058;48.406;-4.514;2022-07-29T04:50:57;25.75;20.75;14.50
73749;PMS7003;62058;48.406;-4.514;2022-07-29T04:53:23;19.25;19.25;13.25
73749;PMS7003;62058;48.406;-4.514;2022-07-29T04:55:48;23.75;19.75;13.75
73749;PMS7003;62058;48.406;-4.514;2022-07-29T04:58:14;20.25;18.75;13.50
73749;PMS7003;62058;48.406;-4.514;2022-07-29T05:00:39;31.00;24.75;15.00
73749;PMS7003;62058;48.406;-4.514;2022-07-29T05:03:05;24.50;20.75;14.75
73749;PMS7003;62058;48.406;-4.514;2022-07-29T05:05:31;27.50;24.50;16.50
73749;PMS7003;62058;48.406;-4.514;2022-07-29T05:07:56;28.75;21.75;16.25
73749;PMS7003;62058;48.406;-4.514;2022-07-29T05:10:22;27.25;24.25;15.00
73749;PMS7003;62058;48.406;-4.514;2022-07-29T05:12:48;22.00;17.75;14.25
73749;PMS7003;62058;48.406;-4.514;2022-07-29T05:15:13;24.75;22.25;16.75
73749;PMS7003;62058;48.406;-4.514;2022-07-29T05:17:39;23.75;19.00;12.50
73749;PMS7003;62058;48.406;-4.514;2022-07-29T05:20:05;25.00;22.75;15.50
73749;PMS7003;62058;48.406;-4.514;2022-07-29T05:22:31;20.25;17.75;12.00
73749;PMS7003;62058;48.406;-4.514;2022-07-29T05:24:56;25.75;23.50;15.75
73749;PMS7003;62058;48.406;-4.514;2022-07-29T05:27:21;22.75;20.75;15.75
73749;PMS7003;62058;48.406;-4.514;2022-07-29T05:29:47;25.00;21.75;15.25
73749;PMS7003;62058;48.406;-4.514;2022-07-29T05:32:12;28.00;21.75;16.50
73749;PMS7003;62058;48.406;-4.514;2022-07-29T05:34:38;26.75;24.50;17.00
73749;PMS7003;62058;48.406;-4.514;2022-07-29T05:37:03;19.75;18.00;13.75
73749;PMS7003;62058;48.406;-4.514;2022-07-29T05:39:29;26.00;22.25;15.75
73749;PMS7003;62058;48.406;-4.514;2022-07-29T05:41:54;27.75;23.50;17.50
73749;PMS7003;62058;48.406;-4.514;2022-07-29T05:44:20;25.25;21.25;14.50
73749;PMS7003;62058;48.406;-4.514;2022-07-29T05:46:45;25.75;23.75;16.75
